Flugplatz Schwarzheide/Schipkau

Für EDBZ sind keine METAR/TAF Berichte vorhanden.
Es werden die Flugwettermeldungen vom Flugplatz Dresden in 40 km Entfernung angezeigt.

Bericht für EDDC

vom 01.08. um 15:50 UTC

Wind 3 kt aus 240°

Sichtweite 10 km oder mehr

gering bewölkt in 2000 ft

Temperatur 20.0°C

Taupunkt 14.0°C

Luftfeuchtigkeit 68%

Luftdruck 1008 hPa

keine wesentliche Wetteränderung innerhalb den nächsten 2 Stunden zu erwarten

EDDC 011550Z 24003KT 180V300 9999 FEW020 20/14 Q1008 NOSIG

Prognose für EDDC

vom 01.08. um 11:00 UTC

Zwischen 12:00 UTC und 04:00 UTC

Wind 4 kt aus 260°

Sichtweite 10 km oder mehr

aufgelockert bewölkt in 3000 ft


Zwischen 12:00 UTC und 14:00 UTC zeitweise mit einer Wahrscheinlichkeit von 30%

Regen


Am 02.08. zwischen 04:00 und 06:00 UTC übergehend zu

Wind 9 kt aus 270°

Sichtweite 10 km oder mehr

aufgelockert bewölkt in 3000 ft


Am 02.08. zwischen 05:00 UTC und 09:00 UTC zeitweise mit einer Wahrscheinlichkeit von 30%

Sichtweite 4000 m

Code: TSRA

aufgelockert bewölkt in 1000 ft

aufgebrochene Bewölkung in 1400 ft

TAF EDDC 011100Z 0112/0212 26004KT 9999 SCT030 PROB30 TEMPO 0112/0114 RA BECMG 0204/0206 27009KT PROB30 TEMPO 0205/0209 4000 -TSRA SCT010CB BKN014
Impressum